createdAt,value
2023-01-31T00:01:39.954Z,5.65
2023-01-31T00:04:10.304Z,5.68
2023-01-31T00:06:51.535Z,4.72
2023-01-31T00:09:18.752Z,6.05
2023-01-31T00:11:45.990Z,6.07
2023-01-31T00:14:19.779Z,8.95
2023-01-31T00:16:46.849Z,4.45
2023-01-31T00:19:13.571Z,4.97
2023-01-31T00:21:43.727Z,3.92
2023-01-31T00:24:12.818Z,4.03
2023-01-31T00:26:40.089Z,3.67
2023-01-31T00:29:07.133Z,5.13
2023-01-31T00:31:35.117Z,4.40
2023-01-31T00:34:02.270Z,4.60
2023-01-31T00:36:32.503Z,4.60
2023-01-31T00:39:01.636Z,4.45
2023-01-31T00:41:29.660Z,4.63
2023-01-31T00:43:57.351Z,3.72
2023-01-31T00:46:24.268Z,6.82
2023-01-31T00:48:51.567Z,7.23
2023-01-31T00:51:20.182Z,5.70
2023-01-31T00:53:47.662Z,5.60
2023-01-31T00:56:17.296Z,5.80
2023-01-31T00:58:44.643Z,10.55
2023-01-31T01:01:14.736Z,14.67
2023-01-31T01:03:43.250Z,10.63
2023-01-31T01:06:11.001Z,8.25
2023-01-31T01:08:40.042Z,15.48
2023-01-31T01:11:11.888Z,11.93
2023-01-31T01:13:39.189Z,10.43
2023-01-31T01:16:12.261Z,9.15
2023-01-31T01:18:39.573Z,15.63
2023-01-31T01:21:13.006Z,15.43
2023-01-31T01:23:42.977Z,6.18
2023-01-31T01:26:18.585Z,14.50
2023-01-31T01:28:45.673Z,7.68
2023-01-31T01:31:16.727Z,10.63
2023-01-31T01:33:46.086Z,8.32
2023-01-31T01:36:17.531Z,5.97
2023-01-31T01:38:45.663Z,9.73
2023-01-31T01:41:14.423Z,12.90
2023-01-31T01:43:49.264Z,26.48
2023-01-31T01:46:43.820Z,13.02
2023-01-31T01:49:36.936Z,18.90
2023-01-31T01:52:07.231Z,6.50
2023-01-31T01:54:50.761Z,8.48
2023-01-31T01:57:23.442Z,5.70
2023-01-31T02:00:01.318Z,24.35
2023-01-31T02:02:28.597Z,6.35
2023-01-31T02:04:55.617Z,7.93
2023-01-31T02:07:22.562Z,8.25
2023-01-31T02:09:59.492Z,15.70
2023-01-31T02:12:26.417Z,6.85
2023-01-31T02:14:54.013Z,14.25
2023-01-31T02:17:21.058Z,7.73
2023-01-31T02:20:04.219Z,9.77
2023-01-31T02:22:49.992Z,8.07
2023-01-31T02:25:47.002Z,11.38
2023-01-31T02:28:23.006Z,24.70
2023-01-31T02:31:01.978Z,8.97
2023-01-31T02:33:40.758Z,15.40
2023-01-31T02:36:45.479Z,37.67
2023-01-31T02:39:31.047Z,7.20
2023-01-31T02:42:13.868Z,11.82
2023-01-31T02:44:59.397Z,5.37
2023-01-31T02:47:25.882Z,9.57
2023-01-31T02:50:02.770Z,15.05
2023-01-31T02:52:45.804Z,11.10
2023-01-31T02:55:41.854Z,16.95
2023-01-31T02:58:12.638Z,10.23
2023-01-31T03:00:45.356Z,7.13
2023-01-31T03:03:21.621Z,16.63
2023-01-31T03:06:09.585Z,8.48
2023-01-31T03:08:37.432Z,11.07
2023-01-31T03:11:07.964Z,8.37
2023-01-31T03:14:08.162Z,22.77
2023-01-31T03:17:07.669Z,21.13
2023-01-31T03:19:46.683Z,17.63
2023-01-31T03:22:18.469Z,11.35
2023-01-31T03:24:48.186Z,22.33
2023-01-31T03:27:16.820Z,46.33
2023-01-31T03:29:44.869Z,13.50
2023-01-31T03:32:30.914Z,9.07
2023-01-31T03:34:57.738Z,12.93
2023-01-31T03:37:36.149Z,11.10
2023-01-31T03:40:13.458Z,20.13
2023-01-31T03:42:52.426Z,20.63
2023-01-31T03:45:35.217Z,12.30
2023-01-31T03:48:06.773Z,24.02
2023-01-31T03:50:41.278Z,22.40
2023-01-31T03:53:13.856Z,42.15
2023-01-31T03:55:51.232Z,22.13
2023-01-31T03:58:20.883Z,7.78
2023-01-31T04:00:50.450Z,8.00
2023-01-31T04:03:37.226Z,15.07
2023-01-31T04:06:04.425Z,18.63
2023-01-31T04:08:32.722Z,28.75
2023-01-31T04:11:00.871Z,28.95
2023-01-31T04:13:27.535Z,19.08
2023-01-31T04:15:54.200Z,27.17
2023-01-31T04:18:20.992Z,28.92
2023-01-31T04:20:47.798Z,15.13
2023-01-31T04:23:14.452Z,49.47
2023-01-31T04:25:41.325Z,9.43
2023-01-31T04:28:07.942Z,24.43
2023-01-31T04:30:34.658Z,31.42
2023-01-31T04:33:01.243Z,14.57
2023-01-31T04:35:27.829Z,13.75
2023-01-31T04:37:54.600Z,24.50
2023-01-31T04:40:21.634Z,10.17
2023-01-31T04:42:50.331Z,12.43
2023-01-31T04:45:17.006Z,17.80
2023-01-31T04:47:43.816Z,31.60
2023-01-31T04:50:11.027Z,16.45
2023-01-31T04:52:37.788Z,17.90
2023-01-31T04:55:04.749Z,12.45
2023-01-31T04:57:31.762Z,15.30
2023-01-31T04:59:58.470Z,13.90
2023-01-31T05:02:26.313Z,28.30
2023-01-31T05:04:53.125Z,14.63
2023-01-31T05:07:19.690Z,22.00
2023-01-31T05:09:46.789Z,43.45
2023-01-31T05:12:13.489Z,36.50
2023-01-31T05:14:40.203Z,27.17
2023-01-31T05:17:06.922Z,16.73
2023-01-31T05:19:33.509Z,23.17
2023-01-31T05:22:00.363Z,25.00
2023-01-31T05:24:29.732Z,24.80
2023-01-31T05:27:01.774Z,12.90
2023-01-31T05:29:30.681Z,28.80
2023-01-31T05:31:59.858Z,22.70
2023-01-31T05:34:28.768Z,58.20
2023-01-31T05:36:56.142Z,16.23
2023-01-31T05:39:22.865Z,33.78
2023-01-31T05:41:49.468Z,10.50
2023-01-31T05:44:16.473Z,19.30
2023-01-31T05:46:43.472Z,12.93
2023-01-31T05:49:10.311Z,57.35
2023-01-31T05:51:36.963Z,30.23
2023-01-31T05:54:04.113Z,55.70
2023-01-31T05:56:31.239Z,50.15
2023-01-31T05:58:57.987Z,62.13
2023-01-31T06:01:26.755Z,26.77
2023-01-31T06:03:53.719Z,8.63
2023-01-31T06:06:21.264Z,25.13
2023-01-31T06:08:48.314Z,35.50
2023-01-31T06:11:15.366Z,12.32
2023-01-31T06:13:46.087Z,32.78
2023-01-31T06:16:13.270Z,11.02
2023-01-31T06:18:39.875Z,8.53
2023-01-31T06:21:06.714Z,28.10
2023-01-31T06:23:34.584Z,14.50
2023-01-31T06:26:01.533Z,49.80
2023-01-31T06:28:28.187Z,39.47
2023-01-31T06:30:55.037Z,9.80
2023-01-31T06:33:24.431Z,21.10
2023-01-31T06:35:59.533Z,17.85
2023-01-31T06:38:27.296Z,7.65
2023-01-31T06:40:53.915Z,38.20
2023-01-31T06:43:20.488Z,25.97
2023-01-31T06:45:49.464Z,31.40
2023-01-31T06:48:16.933Z,27.88
2023-01-31T06:50:44.814Z,28.35
2023-01-31T06:53:11.494Z,12.68
2023-01-31T06:55:38.776Z,17.80
2023-01-31T06:58:05.498Z,22.55
2023-01-31T07:00:32.739Z,19.08
2023-01-31T07:02:59.364Z,39.53
2023-01-31T07:05:26.188Z,19.10
2023-01-31T07:07:52.741Z,21.07
2023-01-31T07:10:19.447Z,32.20
2023-01-31T07:12:48.384Z,27.55
2023-01-31T07:15:15.281Z,24.98
2023-01-31T07:17:42.056Z,21.48
2023-01-31T07:20:09.252Z,54.80
2023-01-31T07:22:35.821Z,58.10
2023-01-31T07:25:02.419Z,27.30
2023-01-31T07:27:28.998Z,22.98
2023-01-31T07:29:55.632Z,60.00
2023-01-31T07:32:22.311Z,29.53
2023-01-31T07:34:49.918Z,17.67
2023-01-31T07:37:16.545Z,37.25
2023-01-31T07:39:43.300Z,30.60
2023-01-31T07:42:09.884Z,26.73
2023-01-31T07:44:36.471Z,18.00
2023-01-31T07:47:03.123Z,26.30
2023-01-31T07:49:29.782Z,37.05
2023-01-31T07:51:56.423Z,53.08
2023-01-31T07:54:23.164Z,35.92
2023-01-31T07:56:49.738Z,53.50
2023-01-31T07:59:17.719Z,48.65
2023-01-31T08:02:03.205Z,19.80
2023-01-31T08:04:29.854Z,44.65
2023-01-31T08:06:56.699Z,15.68
2023-01-31T08:09:25.168Z,57.83
2023-01-31T08:11:52.046Z,25.67
2023-01-31T08:14:23.736Z,35.67
2023-01-31T08:16:50.465Z,50.78
2023-01-31T08:19:17.302Z,48.10
2023-01-31T08:21:44.057Z,73.60
2023-01-31T08:24:10.712Z,53.72
2023-01-31T08:26:38.504Z,62.28
2023-01-31T08:29:06.969Z,52.53
2023-01-31T08:31:33.911Z,27.65
2023-01-31T08:34:00.609Z,22.77
2023-01-31T08:36:31.931Z,36.60
2023-01-31T08:38:59.535Z,56.88
2023-01-31T08:41:27.491Z,32.67
2023-01-31T08:43:58.064Z,49.25
2023-01-31T08:46:27.786Z,64.00
2023-01-31T08:48:54.722Z,48.28
2023-01-31T08:51:22.150Z,60.05
2023-01-31T08:53:49.309Z,38.88
2023-01-31T08:56:16.341Z,70.90
2023-01-31T08:58:44.853Z,53.27
2023-01-31T09:01:17.775Z,32.03
2023-01-31T09:03:45.932Z,27.85
2023-01-31T09:06:16.055Z,26.55
2023-01-31T09:08:43.290Z,59.80
2023-01-31T09:11:10.133Z,77.43
2023-01-31T09:13:37.158Z,54.53
2023-01-31T09:16:07.775Z,69.00
2023-01-31T09:18:35.918Z,51.00
2023-01-31T09:21:11.935Z,48.13
2023-01-31T09:23:42.188Z,12.47
2023-01-31T09:26:11.189Z,47.38
2023-01-31T09:28:38.127Z,49.63
2023-01-31T09:31:07.152Z,71.55
2023-01-31T09:33:35.424Z,60.90
2023-01-31T09:36:07.036Z,39.23
2023-01-31T09:38:34.563Z,45.20
2023-01-31T09:41:05.361Z,37.13
2023-01-31T09:43:41.611Z,69.10
2023-01-31T09:46:16.074Z,41.08
2023-01-31T09:48:48.555Z,20.30
2023-01-31T09:51:16.612Z,61.45
2023-01-31T09:53:44.427Z,68.60
2023-01-31T09:56:40.384Z,47.60
2023-01-31T09:59:25.413Z,51.55
2023-01-31T10:02:10.209Z,41.67
2023-01-31T10:04:42.890Z,94.88
2023-01-31T10:07:21.962Z,70.72
2023-01-31T10:10:10.301Z,57.85
2023-01-31T10:12:46.255Z,48.70
2023-01-31T10:15:15.888Z,24.47
2023-01-31T10:17:51.504Z,29.33
2023-01-31T10:20:27.034Z,36.20
2023-01-31T10:23:11.034Z,21.88
2023-01-31T10:25:56.285Z,45.03
2023-01-31T10:28:39.542Z,54.67
2023-01-31T10:31:12.327Z,45.10
2023-01-31T10:33:49.472Z,73.70
2023-01-31T10:36:29.096Z,15.63
2023-01-31T10:39:03.055Z,63.10
2023-01-31T10:41:51.250Z,76.10
2023-01-31T10:44:27.755Z,56.65
2023-01-31T10:46:59.374Z,64.30
2023-01-31T10:49:28.118Z,11.60
2023-01-31T10:52:11.069Z,46.15
2023-01-31T10:54:56.619Z,32.70
2023-01-31T10:57:23.429Z,30.45
2023-01-31T10:59:51.326Z,20.15
2023-01-31T11:02:25.020Z,87.75
2023-01-31T11:04:54.988Z,66.55
2023-01-31T11:07:22.580Z,38.13
2023-01-31T11:09:53.400Z,85.75
2023-01-31T11:12:21.983Z,80.60
2023-01-31T11:15:14.274Z,55.47
2023-01-31T11:17:44.123Z,59.15
2023-01-31T11:20:47.024Z,56.93
2023-01-31T11:23:25.600Z,37.70
2023-01-31T11:25:54.133Z,59.72
2023-01-31T11:28:27.755Z,34.00
2023-01-31T11:30:55.721Z,56.22
2023-01-31T11:33:46.127Z,11.53
2023-01-31T11:36:22.920Z,59.33
2023-01-31T11:38:50.832Z,71.05
2023-01-31T11:41:30.708Z,88.60
2023-01-31T11:44:21.245Z,109.35
2023-01-31T11:47:00.781Z,81.00
2023-01-31T11:49:29.868Z,106.30
2023-01-31T11:51:59.338Z,101.10
2023-01-31T11:54:30.140Z,82.45
2023-01-31T11:56:57.893Z,84.72
2023-01-31T11:59:28.999Z,41.17
2023-01-31T12:01:59.085Z,47.33
2023-01-31T12:04:34.874Z,53.08
2023-01-31T12:07:05.337Z,28.73
2023-01-31T12:09:43.321Z,46.50
2023-01-31T12:12:34.758Z,34.30
2023-01-31T12:15:04.992Z,36.80
2023-01-31T12:17:41.993Z,23.65
2023-01-31T12:20:25.400Z,48.50
2023-01-31T12:23:21.503Z,42.75
2023-01-31T12:25:58.310Z,68.43
2023-01-31T12:28:43.640Z,28.83
2023-01-31T12:31:34.672Z,23.15
2023-01-31T12:34:25.563Z,64.57
2023-01-31T12:37:15.150Z,36.05
2023-01-31T12:39:59.456Z,19.23
2023-01-31T12:42:28.984Z,62.35
2023-01-31T12:45:08.320Z,34.13
2023-01-31T12:47:44.285Z,39.47
2023-01-31T12:50:33.340Z,60.78
2023-01-31T12:53:19.052Z,59.57
2023-01-31T12:56:00.793Z,27.80
2023-01-31T12:58:30.638Z,37.13
2023-01-31T13:01:09.127Z,52.35
2023-01-31T13:03:48.018Z,23.98
2023-01-31T13:06:30.346Z,37.27
2023-01-31T13:09:08.417Z,36.83
2023-01-31T13:11:41.543Z,36.05
2023-01-31T13:14:16.142Z,46.00
2023-01-31T13:16:46.427Z,37.08
2023-01-31T13:19:23.269Z,38.53
2023-01-31T13:21:54.427Z,54.58
2023-01-31T13:24:29.746Z,38.88
2023-01-31T13:27:02.259Z,34.75
2023-01-31T13:29:53.415Z,57.25
2023-01-31T13:32:28.813Z,26.23
2023-01-31T13:35:10.439Z,39.53
2023-01-31T13:37:40.712Z,48.13
2023-01-31T13:40:17.028Z,67.78
2023-01-31T13:42:43.639Z,15.98
2023-01-31T13:45:24.396Z,17.20
2023-01-31T13:47:58.519Z,38.25
2023-01-31T13:50:38.680Z,26.02
2023-01-31T13:53:13.184Z,32.78
2023-01-31T13:55:42.592Z,23.88
2023-01-31T13:58:22.162Z,45.93
2023-01-31T14:00:58.995Z,10.00
2023-01-31T14:03:26.540Z,60.17
2023-01-31T14:05:59.164Z,69.82
2023-01-31T14:08:50.210Z,75.57
2023-01-31T14:11:16.741Z,19.00
2023-01-31T14:13:45.753Z,16.67
2023-01-31T14:16:37.029Z,27.25
2023-01-31T14:19:06.118Z,21.75
2023-01-31T14:21:32.830Z,37.22
2023-01-31T14:24:02.785Z,51.83
2023-01-31T14:26:45.101Z,35.80
2023-01-31T14:29:26.467Z,32.08
2023-01-31T14:31:56.598Z,42.53
2023-01-31T14:34:27.919Z,28.50
2023-01-31T14:37:16.411Z,28.50
2023-01-31T14:39:56.236Z,30.35
2023-01-31T14:42:52.859Z,15.93
2023-01-31T14:45:41.081Z,40.42
2023-01-31T14:48:07.675Z,20.90
2023-01-31T14:50:58.679Z,30.93
2023-01-31T14:53:25.124Z,33.88
2023-01-31T14:56:28.679Z,59.20
2023-01-31T14:58:55.557Z,38.20
2023-01-31T15:01:31.324Z,31.55
2023-01-31T15:03:59.169Z,29.57
2023-01-31T15:06:33.674Z,34.42
2023-01-31T15:09:15.969Z,46.53
2023-01-31T15:11:44.804Z,41.92
2023-01-31T15:14:41.103Z,30.85
2023-01-31T15:17:31.664Z,9.13
2023-01-31T15:20:24.083Z,28.15
2023-01-31T15:22:53.815Z,34.70
2023-01-31T15:25:43.665Z,44.95
2023-01-31T15:28:15.419Z,14.82
2023-01-31T15:30:43.956Z,20.07
2023-01-31T15:33:29.310Z,21.35
2023-01-31T15:36:00.587Z,6.47
2023-01-31T15:38:33.168Z,9.93
2023-01-31T15:41:22.672Z,11.10
2023-01-31T15:43:52.083Z,7.30
2023-01-31T15:46:29.110Z,5.25
2023-01-31T15:48:56.375Z,15.18
2023-01-31T15:51:24.005Z,6.47
2023-01-31T15:54:06.116Z,25.77
2023-01-31T15:56:35.525Z,18.93
2023-01-31T15:59:10.141Z,19.77
2023-01-31T16:01:36.825Z,9.32
2023-01-31T16:04:03.881Z,30.60
2023-01-31T16:06:34.588Z,13.55
2023-01-31T16:09:04.160Z,18.10
2023-01-31T16:11:34.105Z,26.10
2023-01-31T16:14:07.681Z,9.00
2023-01-31T16:16:36.096Z,36.58
2023-01-31T16:19:03.910Z,16.27
2023-01-31T16:21:42.760Z,36.90
2023-01-31T16:24:09.690Z,36.35
2023-01-31T16:26:48.277Z,17.73
2023-01-31T16:29:18.249Z,11.60
2023-01-31T16:31:55.589Z,29.23
2023-01-31T16:34:24.561Z,17.60
2023-01-31T16:36:51.086Z,16.20
2023-01-31T16:39:45.040Z,8.85
2023-01-31T16:42:22.285Z,6.25
2023-01-31T16:44:50.489Z,38.95
2023-01-31T16:47:51.322Z,23.37
2023-01-31T16:50:18.031Z,59.88
2023-01-31T16:52:46.492Z,34.95
2023-01-31T16:55:26.586Z,34.22
2023-01-31T16:57:54.007Z,46.72
2023-01-31T17:00:23.592Z,12.07
2023-01-31T17:03:00.812Z,11.43
2023-01-31T17:05:41.333Z,17.63
2023-01-31T17:08:20.432Z,33.42
2023-01-31T17:10:48.707Z,8.65
2023-01-31T17:13:23.790Z,14.33
2023-01-31T17:15:50.548Z,40.75
2023-01-31T17:18:17.727Z,21.20
2023-01-31T17:20:48.522Z,15.85
2023-01-31T17:23:15.533Z,38.75
2023-01-31T17:25:43.474Z,6.60
2023-01-31T17:28:11.340Z,14.25
2023-01-31T17:30:41.090Z,5.95
2023-01-31T17:33:11.697Z,14.90
2023-01-31T17:35:41.208Z,22.45
2023-01-31T17:38:07.879Z,23.93
2023-01-31T17:40:34.856Z,28.83
2023-01-31T17:43:04.302Z,13.75
2023-01-31T17:45:32.581Z,18.48
2023-01-31T17:47:59.482Z,23.02
2023-01-31T17:50:28.602Z,12.20
2023-01-31T17:52:56.610Z,24.73
2023-01-31T17:55:25.114Z,7.72
2023-01-31T17:57:52.270Z,26.48
2023-01-31T18:00:20.369Z,8.65
2023-01-31T18:02:47.100Z,12.67
2023-01-31T18:05:33.488Z,6.97
2023-01-31T18:08:05.767Z,10.77
2023-01-31T18:10:32.381Z,8.35
2023-01-31T18:12:59.092Z,10.38
2023-01-31T18:15:25.851Z,7.63
2023-01-31T18:17:52.405Z,13.95
2023-01-31T18:20:19.368Z,9.68
2023-01-31T18:22:46.602Z,15.68
2023-01-31T18:25:13.754Z,25.52
2023-01-31T18:27:40.537Z,7.63
2023-01-31T18:30:07.663Z,10.93
2023-01-31T18:32:34.525Z,9.95
2023-01-31T18:35:01.729Z,7.65
2023-01-31T18:37:28.314Z,18.90
2023-01-31T18:39:54.971Z,11.37
2023-01-31T18:42:21.873Z,7.82
2023-01-31T18:44:48.424Z,10.52
2023-01-31T18:47:16.019Z,8.15
2023-01-31T18:49:43.376Z,7.30
2023-01-31T18:52:10.076Z,7.30
2023-01-31T18:54:37.693Z,7.57
2023-01-31T18:57:04.871Z,17.77
2023-01-31T18:59:33.611Z,28.30
2023-01-31T19:02:00.534Z,24.90
2023-01-31T19:04:27.302Z,5.07
2023-01-31T19:06:53.957Z,7.25
2023-01-31T19:09:20.595Z,9.48
2023-01-31T19:11:47.187Z,54.63
2023-01-31T19:14:14.948Z,10.63
2023-01-31T19:16:43.652Z,8.77
2023-01-31T19:19:11.262Z,7.95
2023-01-31T19:21:39.933Z,11.65
2023-01-31T19:24:09.991Z,42.90
2023-01-31T19:26:36.715Z,8.60
2023-01-31T19:29:05.147Z,11.10
2023-01-31T19:31:33.817Z,5.43
2023-01-31T19:34:03.302Z,18.75
2023-01-31T19:36:38.392Z,11.52
2023-01-31T19:39:07.963Z,6.50
2023-01-31T19:41:34.710Z,7.43
2023-01-31T19:44:02.666Z,15.57
2023-01-31T19:46:32.338Z,9.00
2023-01-31T19:48:59.947Z,11.35
2023-01-31T19:51:27.283Z,23.08
2023-01-31T19:53:55.836Z,15.73
2023-01-31T19:56:24.335Z,6.28
2023-01-31T19:58:51.158Z,8.63
2023-01-31T20:01:17.866Z,8.90
2023-01-31T20:03:45.992Z,7.80
2023-01-31T20:06:15.291Z,24.50
2023-01-31T20:08:42.238Z,21.58
2023-01-31T20:11:10.757Z,6.47
2023-01-31T20:13:37.948Z,25.73
2023-01-31T20:16:09.947Z,18.60
2023-01-31T20:18:38.184Z,4.87
2023-01-31T20:21:06.112Z,15.07
2023-01-31T20:23:33.545Z,6.18
2023-01-31T20:26:00.491Z,11.50
2023-01-31T20:28:27.772Z,16.30
2023-01-31T20:30:55.126Z,6.90
2023-01-31T20:33:22.454Z,14.45
2023-01-31T20:35:49.667Z,14.63
2023-01-31T20:38:18.138Z,10.75
2023-01-31T20:40:52.819Z,10.02
2023-01-31T20:43:21.761Z,6.33
2023-01-31T20:45:48.888Z,39.95
2023-01-31T20:48:16.159Z,13.05
2023-01-31T20:50:43.791Z,20.77
2023-01-31T20:53:18.968Z,10.55
2023-01-31T20:56:15.209Z,5.07
2023-01-31T20:58:43.339Z,13.40
2023-01-31T21:01:11.219Z,9.10
2023-01-31T21:03:38.138Z,7.05
2023-01-31T21:06:05.598Z,17.45
2023-01-31T21:08:33.051Z,7.63
2023-01-31T21:11:03.616Z,8.50
2023-01-31T21:13:31.562Z,11.05
2023-01-31T21:16:00.608Z,25.15
2023-01-31T21:18:29.200Z,6.50
2023-01-31T21:20:56.539Z,11.27
2023-01-31T21:23:23.595Z,11.27
2023-01-31T21:25:50.245Z,5.88
2023-01-31T21:28:17.006Z,4.45
2023-01-31T21:30:44.032Z,4.40
2023-01-31T21:33:10.692Z,4.93
2023-01-31T21:35:37.633Z,4.18
2023-01-31T21:38:04.261Z,5.03
2023-01-31T21:40:31.021Z,7.32
2023-01-31T21:42:57.635Z,7.18
2023-01-31T21:45:40.026Z,5.10
2023-01-31T21:48:30.013Z,4.35
2023-01-31T21:50:57.737Z,4.43
2023-01-31T21:53:26.369Z,9.60
2023-01-31T21:56:09.783Z,11.88
2023-01-31T21:58:37.617Z,5.80
2023-01-31T22:01:13.270Z,9.57
2023-01-31T22:03:42.894Z,5.00
2023-01-31T22:06:13.887Z,4.90
2023-01-31T22:08:40.946Z,9.27
2023-01-31T22:11:10.648Z,4.17
2023-01-31T22:13:39.157Z,15.45
2023-01-31T22:16:10.289Z,14.05
2023-01-31T22:18:37.950Z,4.53
2023-01-31T22:21:13.699Z,7.35
2023-01-31T22:23:44.757Z,13.53
2023-01-31T22:26:14.124Z,4.78
2023-01-31T22:28:40.788Z,10.45
2023-01-31T22:31:09.068Z,9.07
2023-01-31T22:33:38.594Z,10.98
2023-01-31T22:36:06.453Z,4.13
2023-01-31T22:38:33.560Z,21.38
2023-01-31T22:41:05.990Z,12.93
2023-01-31T22:43:37.297Z,6.60
2023-01-31T22:46:04.523Z,16.98
2023-01-31T22:48:31.356Z,10.07
2023-01-31T22:51:00.730Z,11.30
2023-01-31T22:53:30.790Z,7.75
2023-01-31T22:56:02.161Z,8.57
2023-01-31T22:58:29.213Z,5.70
2023-01-31T23:00:55.999Z,5.97
2023-01-31T23:03:22.794Z,4.40
2023-01-31T23:05:49.470Z,4.40
2023-01-31T23:08:16.793Z,9.93
2023-01-31T23:10:44.345Z,4.32
2023-01-31T23:13:11.746Z,9.30
2023-01-31T23:15:39.499Z,7.07
2023-01-31T23:18:06.628Z,10.50
2023-01-31T23:20:34.393Z,6.55
2023-01-31T23:23:01.113Z,6.93
2023-01-31T23:25:32.307Z,24.70
2023-01-31T23:27:59.528Z,13.68
2023-01-31T23:30:26.249Z,8.75
2023-01-31T23:32:53.386Z,8.35
2023-01-31T23:35:23.137Z,9.68
2023-01-31T23:37:50.054Z,25.70
2023-01-31T23:40:16.805Z,13.15
2023-01-31T23:42:43.424Z,15.18
2023-01-31T23:45:10.606Z,15.80
2023-01-31T23:47:37.313Z,6.45
2023-01-31T23:50:04.131Z,18.47
2023-01-31T23:52:30.829Z,11.10
2023-01-31T23:54:57.504Z,17.45
2023-01-31T23:57:24.071Z,37.92
2023-01-31T23:59:50.634Z,10.13
